sensor_id;sensor_type;location;lat;lon;timestamp;temperature;humidity
573;DHT22;271;51.114;13.780;2023-11-19T00:02:18;4.30;7.30
573;DHT22;271;51.114;13.780;2023-11-19T00:05:06;4.10;9.20
573;DHT22;271;51.114;13.780;2023-11-19T00:07:55;4.10;10.00
573;DHT22;271;51.114;13.780;2023-11-19T00:10:44;4.10;10.10
573;DHT22;271;51.114;13.780;2023-11-19T00:13:32;4.10;10.10
573;DHT22;271;51.114;13.780;2023-11-19T00:16:20;4.00;9.40
573;DHT22;271;51.114;13.780;2023-11-19T00:19:08;4.00;9.80
573;DHT22;271;51.114;13.780;2023-11-19T00:21:55;4.00;11.40
573;DHT22;271;51.114;13.780;2023-11-19T00:24:43;3.90;7.30
573;DHT22;271;51.114;13.780;2023-11-19T00:27:32;3.90;10.80
573;DHT22;271;51.114;13.780;2023-11-19T00:30:20;3.80;10.90
573;DHT22;271;51.114;13.780;2023-11-19T00:33:07;3.90;10.30
573;DHT22;271;51.114;13.780;2023-11-19T00:35:55;4.00;9.40
573;DHT22;271;51.114;13.780;2023-11-19T00:38:43;3.90;5.40
573;DHT22;271;51.114;13.780;2023-11-19T00:41:30;3.80;3.50
573;DHT22;271;51.114;13.780;2023-11-19T00:44:19;3.80;1.80
573;DHT22;271;51.114;13.780;2023-11-19T00:47:08;3.80;2.50
573;DHT22;271;51.114;13.780;2023-11-19T00:49:55;3.70;1.80
573;DHT22;271;51.114;13.780;2023-11-19T00:52:43;3.70;2.70
573;DHT22;271;51.114;13.780;2023-11-19T00:55:31;3.70;2.40
573;DHT22;271;51.114;13.780;2023-11-19T00:58:18;3.60;1.00
573;DHT22;271;51.114;13.780;2023-11-19T01:01:07;3.80;1.90
573;DHT22;271;51.114;13.780;2023-11-19T01:03:55;3.60;1.00
573;DHT22;271;51.114;13.780;2023-11-19T01:06:43;3.60;1.30
573;DHT22;271;51.114;13.780;2023-11-19T01:09:31;3.60;2.90
573;DHT22;271;51.114;13.780;2023-11-19T01:12:20;3.60;3.30
573;DHT22;271;51.114;13.780;2023-11-19T01:15:09;3.60;5.10
573;DHT22;271;51.114;13.780;2023-11-19T01:17:58;3.70;4.80
573;DHT22;271;51.114;13.780;2023-11-19T01:20:45;3.70;3.70
573;DHT22;271;51.114;13.780;2023-11-19T01:23:33;3.70;3.10
573;DHT22;271;51.114;13.780;2023-11-19T01:26:21;3.70;2.20
573;DHT22;271;51.114;13.780;2023-11-19T01:29:09;3.70;4.40
573;DHT22;271;51.114;13.780;2023-11-19T01:31:57;3.80;5.10
573;DHT22;271;51.114;13.780;2023-11-19T01:34:45;3.80;5.70
573;DHT22;271;51.114;13.780;2023-11-19T01:37:33;3.80;2.80
573;DHT22;271;51.114;13.780;2023-11-19T01:40:22;3.80;5.80
573;DHT22;271;51.114;13.780;2023-11-19T01:43:09;3.80;4.60
573;DHT22;271;51.114;13.780;2023-11-19T01:46:00;3.70;5.80
573;DHT22;271;51.114;13.780;2023-11-19T01:48:48;3.80;5.80
573;DHT22;271;51.114;13.780;2023-11-19T01:51:38;3.80;8.80
573;DHT22;271;51.114;13.780;2023-11-19T01:54:26;3.80;5.40
573;DHT22;271;51.114;13.780;2023-11-19T01:57:15;3.70;4.20
573;DHT22;271;51.114;13.780;2023-11-19T02:00:04;3.70;7.70
573;DHT22;271;51.114;13.780;2023-11-19T02:02:52;3.80;8.80
573;DHT22;271;51.114;13.780;2023-11-19T02:05:50;3.90;7.10
573;DHT22;271;51.114;13.780;2023-11-19T02:08:40;3.90;7.00
573;DHT22;271;51.114;13.780;2023-11-19T02:11:29;3.80;4.50
573;DHT22;271;51.114;13.780;2023-11-19T02:14:17;3.80;3.60
573;DHT22;271;51.114;13.780;2023-11-19T02:17:06;3.80;3.50
573;DHT22;271;51.114;13.780;2023-11-19T02:19:54;3.90;6.20
573;DHT22;271;51.114;13.780;2023-11-19T02:22:42;3.90;2.30
573;DHT22;271;51.114;13.780;2023-11-19T02:25:32;3.90;3.80
573;DHT22;271;51.114;13.780;2023-11-19T02:28:22;4.00;4.10
573;DHT22;271;51.114;13.780;2023-11-19T02:31:10;4.00;2.90
573;DHT22;271;51.114;13.780;2023-11-19T02:33:59;4.00;1.00
573;DHT22;271;51.114;13.780;2023-11-19T02:36:48;4.10;1.00
573;DHT22;271;51.114;13.780;2023-11-19T02:39:36;4.10;1.00
573;DHT22;271;51.114;13.780;2023-11-19T02:42:24;4.10;1.00
573;DHT22;271;51.114;13.780;2023-11-19T02:45:14;4.20;1.00
573;DHT22;271;51.114;13.780;2023-11-19T02:48:02;4.20;1.00
573;DHT22;271;51.114;13.780;2023-11-19T02:50:52;4.30;1.00
573;DHT22;271;51.114;13.780;2023-11-19T02:53:40;4.30;1.00
573;DHT22;271;51.114;13.780;2023-11-19T02:56:30;4.30;1.00
573;DHT22;271;51.114;13.780;2023-11-19T02:59:22;4.30;1.00
573;DHT22;271;51.114;13.780;2023-11-19T03:02:15;4.40;1.00
573;DHT22;271;51.114;13.780;2023-11-19T03:05:04;4.40;1.00
573;DHT22;271;51.114;13.780;2023-11-19T03:07:52;4.40;1.00
573;DHT22;271;51.114;13.780;2023-11-19T03:10:39;4.50;1.00
573;DHT22;271;51.114;13.780;2023-11-19T03:13:27;4.50;1.00
573;DHT22;271;51.114;13.780;2023-11-19T03:16:15;4.40;1.00
573;DHT22;271;51.114;13.780;2023-11-19T03:19:04;4.40;1.00
573;DHT22;271;51.114;13.780;2023-11-19T03:21:52;4.50;1.00
573;DHT22;271;51.114;13.780;2023-11-19T03:24:40;4.50;1.00
573;DHT22;271;51.114;13.780;2023-11-19T03:27:28;4.50;1.00
573;DHT22;271;51.114;13.780;2023-11-19T03:30:16;4.50;1.00
573;DHT22;271;51.114;13.780;2023-11-19T03:33:04;4.60;1.00
573;DHT22;271;51.114;13.780;2023-11-19T03:35:53;4.50;1.00
573;DHT22;271;51.114;13.780;2023-11-19T03:38:42;4.50;1.00
573;DHT22;271;51.114;13.780;2023-11-19T03:41:30;4.60;1.00
573;DHT22;271;51.114;13.780;2023-11-19T03:44:17;4.60;1.00
573;DHT22;271;51.114;13.780;2023-11-19T03:47:05;4.60;1.00
573;DHT22;271;51.114;13.780;2023-11-19T03:49:53;4.60;1.00
573;DHT22;271;51.114;13.780;2023-11-19T03:52:42;4.70;1.00
573;DHT22;271;51.114;13.780;2023-11-19T03:55:30;4.70;1.00
573;DHT22;271;51.114;13.780;2023-11-19T03:58:17;4.60;1.00
573;DHT22;271;51.114;13.780;2023-11-19T04:01:05;4.60;1.00
573;DHT22;271;51.114;13.780;2023-11-19T04:03:53;4.60;1.00
573;DHT22;271;51.114;13.780;2023-11-19T04:06:42;4.60;1.00
573;DHT22;271;51.114;13.780;2023-11-19T04:09:31;4.80;1.00
573;DHT22;271;51.114;13.780;2023-11-19T04:12:19;4.50;1.00
573;DHT22;271;51.114;13.780;2023-11-19T04:15:08;4.60;1.00
573;DHT22;271;51.114;13.780;2023-11-19T04:17:56;4.50;1.00
573;DHT22;271;51.114;13.780;2023-11-19T04:20:44;4.60;1.00
573;DHT22;271;51.114;13.780;2023-11-19T04:23:31;4.50;1.00
573;DHT22;271;51.114;13.780;2023-11-19T04:26:21;4.50;1.00
573;DHT22;271;51.114;13.780;2023-11-19T04:29:09;4.60;1.00
573;DHT22;271;51.114;13.780;2023-11-19T04:31:57;4.60;1.00
573;DHT22;271;51.114;13.780;2023-11-19T04:34:45;4.50;1.00
573;DHT22;271;51.114;13.780;2023-11-19T04:37:33;4.50;1.00
573;DHT22;271;51.114;13.780;2023-11-19T04:40:21;4.50;1.00
573;DHT22;271;51.114;13.780;2023-11-19T04:43:10;4.50;3.20
573;DHT22;271;51.114;13.780;2023-11-19T04:45:59;4.40;6.10
573;DHT22;271;51.114;13.780;2023-11-19T04:48:46;4.40;12.60
573;DHT22;271;51.114;13.780;2023-11-19T04:51:38;4.30;14.70
573;DHT22;271;51.114;13.780;2023-11-19T04:54:26;4.20;17.80
573;DHT22;271;51.114;13.780;2023-11-19T04:57:13;4.20;20.80
573;DHT22;271;51.114;13.780;2023-11-19T05:00:03;4.20;24.50
573;DHT22;271;51.114;13.780;2023-11-19T05:02:51;4.10;28.80
573;DHT22;271;51.114;13.780;2023-11-19T05:05:39;4.30;32.00
573;DHT22;271;51.114;13.780;2023-11-19T05:08:26;4.20;32.30
573;DHT22;271;51.114;13.780;2023-11-19T05:11:14;4.20;32.50
573;DHT22;271;51.114;13.780;2023-11-19T05:14:04;4.10;35.50
573;DHT22;271;51.114;13.780;2023-11-19T05:16:53;4.20;36.20
573;DHT22;271;51.114;13.780;2023-11-19T05:19:41;4.20;36.50
573;DHT22;271;51.114;13.780;2023-11-19T05:22:29;4.20;37.70
573;DHT22;271;51.114;13.780;2023-11-19T05:25:16;4.20;37.30
573;DHT22;271;51.114;13.780;2023-11-19T05:28:06;4.40;40.50
573;DHT22;271;51.114;13.780;2023-11-19T05:30:54;4.20;40.50
573;DHT22;271;51.114;13.780;2023-11-19T05:33:44;4.20;40.70
573;DHT22;271;51.114;13.780;2023-11-19T05:36:31;4.20;42.60
573;DHT22;271;51.114;13.780;2023-11-19T05:39:19;4.20;42.90
573;DHT22;271;51.114;13.780;2023-11-19T05:42:07;4.20;44.40
573;DHT22;271;51.114;13.780;2023-11-19T05:44:56;4.20;45.00
573;DHT22;271;51.114;13.780;2023-11-19T05:47:44;4.20;45.50
573;DHT22;271;51.114;13.780;2023-11-19T05:50:33;4.20;46.20
573;DHT22;271;51.114;13.780;2023-11-19T05:53:20;4.20;49.50
573;DHT22;271;51.114;13.780;2023-11-19T05:56:09;4.30;51.10
573;DHT22;271;51.114;13.780;2023-11-19T05:58:57;4.30;51.90
573;DHT22;271;51.114;13.780;2023-11-19T06:01:44;4.30;52.40
573;DHT22;271;51.114;13.780;2023-11-19T06:04:32;4.30;52.50
573;DHT22;271;51.114;13.780;2023-11-19T06:07:21;4.30;51.70
573;DHT22;271;51.114;13.780;2023-11-19T06:10:09;4.30;53.00
573;DHT22;271;51.114;13.780;2023-11-19T06:12:59;4.40;54.20
573;DHT22;271;51.114;13.780;2023-11-19T06:15:51;4.40;54.10
573;DHT22;271;51.114;13.780;2023-11-19T06:18:39;4.50;56.10
573;DHT22;271;51.114;13.780;2023-11-19T06:21:27;4.50;55.30
573;DHT22;271;51.114;13.780;2023-11-19T06:24:16;4.50;55.60
573;DHT22;271;51.114;13.780;2023-11-19T06:27:04;4.50;56.70
573;DHT22;271;51.114;13.780;2023-11-19T06:29:52;4.50;57.90
573;DHT22;271;51.114;13.780;2023-11-19T06:32:39;4.60;58.40
573;DHT22;271;51.114;13.780;2023-11-19T06:35:27;4.60;57.80
573;DHT22;271;51.114;13.780;2023-11-19T06:38:22;4.60;57.00
573;DHT22;271;51.114;13.780;2023-11-19T06:41:11;4.70;58.40
573;DHT22;271;51.114;13.780;2023-11-19T06:43:59;4.70;58.60
573;DHT22;271;51.114;13.780;2023-11-19T06:46:48;4.80;58.90
573;DHT22;271;51.114;13.780;2023-11-19T06:49:36;4.80;58.60
573;DHT22;271;51.114;13.780;2023-11-19T06:52:23;4.90;59.00
573;DHT22;271;51.114;13.780;2023-11-19T06:55:11;5.00;61.00
573;DHT22;271;51.114;13.780;2023-11-19T06:58:01;5.00;60.80
573;DHT22;271;51.114;13.780;2023-11-19T07:00:50;5.10;60.00
573;DHT22;271;51.114;13.780;2023-11-19T07:03:40;5.10;60.60
573;DHT22;271;51.114;13.780;2023-11-19T07:06:28;5.20;61.70
573;DHT22;271;51.114;13.780;2023-11-19T07:09:24;5.30;63.40
573;DHT22;271;51.114;13.780;2023-11-19T07:12:11;5.40;63.40
573;DHT22;271;51.114;13.780;2023-11-19T07:15:02;5.50;63.90
573;DHT22;271;51.114;13.780;2023-11-19T07:17:50;5.40;63.80
573;DHT22;271;51.114;13.780;2023-11-19T07:20:40;5.50;65.10
573;DHT22;271;51.114;13.780;2023-11-19T07:23:31;5.60;66.00
573;DHT22;271;51.114;13.780;2023-11-19T07:26:19;5.70;66.50
573;DHT22;271;51.114;13.780;2023-11-19T07:29:12;5.70;68.00
573;DHT22;271;51.114;13.780;2023-11-19T07:32:03;5.80;68.50
573;DHT22;271;51.114;13.780;2023-11-19T07:34:51;5.90;68.70
573;DHT22;271;51.114;13.780;2023-11-19T07:37:39;6.00;71.20
573;DHT22;271;51.114;13.780;2023-11-19T07:40:27;6.10;70.80
573;DHT22;271;51.114;13.780;2023-11-19T07:43:14;6.30;70.90
573;DHT22;271;51.114;13.780;2023-11-19T07:46:02;6.30;72.40
573;DHT22;271;51.114;13.780;2023-11-19T07:48:52;6.40;72.40
573;DHT22;271;51.114;13.780;2023-11-19T07:51:40;6.50;73.40
573;DHT22;271;51.114;13.780;2023-11-19T07:54:28;6.60;73.80
573;DHT22;271;51.114;13.780;2023-11-19T07:57:16;6.80;73.50
573;DHT22;271;51.114;13.780;2023-11-19T08:00:05;6.70;73.50
573;DHT22;271;51.114;13.780;2023-11-19T08:02:53;6.80;73.30
573;DHT22;271;51.114;13.780;2023-11-19T08:05:42;6.80;70.80
573;DHT22;271;51.114;13.780;2023-11-19T08:08:31;6.90;69.30
573;DHT22;271;51.114;13.780;2023-11-19T08:11:21;6.90;67.00
573;DHT22;271;51.114;13.780;2023-11-19T08:14:08;6.80;63.80
573;DHT22;271;51.114;13.780;2023-11-19T08:16:56;6.80;64.00
573;DHT22;271;51.114;13.780;2023-11-19T08:19:44;6.80;63.60
573;DHT22;271;51.114;13.780;2023-11-19T08:22:33;6.90;64.10
573;DHT22;271;51.114;13.780;2023-11-19T08:25:21;6.90;66.30
573;DHT22;271;51.114;13.780;2023-11-19T08:28:09;7.00;68.60
573;DHT22;271;51.114;13.780;2023-11-19T08:30:57;7.10;70.30
573;DHT22;271;51.114;13.780;2023-11-19T08:33:45;7.30;73.00
573;DHT22;271;51.114;13.780;2023-11-19T08:36:33;7.40;70.60
573;DHT22;271;51.114;13.780;2023-11-19T08:39:22;7.80;76.40
573;DHT22;271;51.114;13.780;2023-11-19T08:42:10;8.10;75.90
573;DHT22;271;51.114;13.780;2023-11-19T08:44:58;8.40;74.20
573;DHT22;271;51.114;13.780;2023-11-19T08:47:45;8.70;68.10
573;DHT22;271;51.114;13.780;2023-11-19T08:50:33;8.80;56.10
573;DHT22;271;51.114;13.780;2023-11-19T08:53:21;8.60;39.70
573;DHT22;271;51.114;13.780;2023-11-19T08:56:10;8.50;33.00
573;DHT22;271;51.114;13.780;2023-11-19T08:58:58;8.40;29.80
573;DHT22;271;51.114;13.780;2023-11-19T09:01:46;8.30;30.90
573;DHT22;271;51.114;13.780;2023-11-19T09:04:33;8.30;32.20
573;DHT22;271;51.114;13.780;2023-11-19T09:07:22;8.20;33.70
573;DHT22;271;51.114;13.780;2023-11-19T09:10:10;8.20;34.30
573;DHT22;271;51.114;13.780;2023-11-19T09:12:59;8.20;38.30
573;DHT22;271;51.114;13.780;2023-11-19T09:15:47;8.20;40.40
573;DHT22;271;51.114;13.780;2023-11-19T09:18:34;8.20;41.30
573;DHT22;271;51.114;13.780;2023-11-19T09:21:22;8.30;44.80
573;DHT22;271;51.114;13.780;2023-11-19T09:24:10;8.30;51.00
573;DHT22;271;51.114;13.780;2023-11-19T09:26:57;8.40;55.40
573;DHT22;271;51.114;13.780;2023-11-19T09:29:47;8.60;60.00
573;DHT22;271;51.114;13.780;2023-11-19T09:32:36;8.70;60.70
573;DHT22;271;51.114;13.780;2023-11-19T09:35:24;8.70;60.80
573;DHT22;271;51.114;13.780;2023-11-19T09:38:12;8.80;60.80
573;DHT22;271;51.114;13.780;2023-11-19T09:41:00;8.90;63.30
573;DHT22;271;51.114;13.780;2023-11-19T09:43:48;8.90;64.90
573;DHT22;271;51.114;13.780;2023-11-19T09:46:37;9.00;67.00
573;DHT22;271;51.114;13.780;2023-11-19T09:49:26;9.10;67.70
573;DHT22;271;51.114;13.780;2023-11-19T09:52:15;9.10;65.20
573;DHT22;271;51.114;13.780;2023-11-19T09:55:02;9.20;65.70
573;DHT22;271;51.114;13.780;2023-11-19T09:57:51;9.20;65.20
573;DHT22;271;51.114;13.780;2023-11-19T10:00:40;9.30;64.90
573;DHT22;271;51.114;13.780;2023-11-19T10:03:32;9.40;64.40
573;DHT22;271;51.114;13.780;2023-11-19T10:06:20;9.40;61.20
573;DHT22;271;51.114;13.780;2023-11-19T10:09:08;9.40;56.80
573;DHT22;271;51.114;13.780;2023-11-19T10:11:55;9.60;58.10
573;DHT22;271;51.114;13.780;2023-11-19T10:14:43;9.80;54.20
573;DHT22;271;51.114;13.780;2023-11-19T10:17:33;10.00;52.40
573;DHT22;271;51.114;13.780;2023-11-19T10:20:22;10.30;40.70
573;DHT22;271;51.114;13.780;2023-11-19T10:23:10;10.50;35.60
573;DHT22;271;51.114;13.780;2023-11-19T10:26:03;10.80;27.00
573;DHT22;271;51.114;13.780;2023-11-19T10:28:52;11.00;17.70
573;DHT22;271;51.114;13.780;2023-11-19T10:31:40;11.00;11.90
573;DHT22;271;51.114;13.780;2023-11-19T10:34:28;10.80;8.00
573;DHT22;271;51.114;13.780;2023-11-19T10:37:29;10.80;9.50
573;DHT22;271;51.114;13.780;2023-11-19T10:40:18;10.70;8.80
573;DHT22;271;51.114;13.780;2023-11-19T10:43:06;10.70;7.70
573;DHT22;271;51.114;13.780;2023-11-19T10:46:09;10.80;9.50
573;DHT22;271;51.114;13.780;2023-11-19T10:48:57;10.90;6.20
573;DHT22;271;51.114;13.780;2023-11-19T10:51:45;11.00;3.30
573;DHT22;271;51.114;13.780;2023-11-19T10:54:35;11.00;2.10
573;DHT22;271;51.114;13.780;2023-11-19T10:57:29;11.10;4.50
573;DHT22;271;51.114;13.780;2023-11-19T11:00:19;11.30;1.00
573;DHT22;271;51.114;13.780;2023-11-19T11:03:11;11.30;1.00
573;DHT22;271;51.114;13.780;2023-11-19T11:06:03;11.20;1.00
573;DHT22;271;51.114;13.780;2023-11-19T11:08:51;11.20;1.00
573;DHT22;271;51.114;13.780;2023-11-19T11:11:41;11.20;1.00
573;DHT22;271;51.114;13.780;2023-11-19T11:14:32;11.10;1.00
573;DHT22;271;51.114;13.780;2023-11-19T11:17:24;11.00;1.00
573;DHT22;271;51.114;13.780;2023-11-19T11:20:13;11.00;1.00
573;DHT22;271;51.114;13.780;2023-11-19T11:23:37;11.10;1.00
573;DHT22;271;51.114;13.780;2023-11-19T11:29:51;11.00;1.00
573;DHT22;271;51.114;13.780;2023-11-19T11:32:50;11.00;1.00
573;DHT22;271;51.114;13.780;2023-11-19T11:35:49;11.00;1.00
573;DHT22;271;51.114;13.780;2023-11-19T11:38:40;10.90;1.00
573;DHT22;271;51.114;13.780;2023-11-19T11:41:29;10.90;1.00
573;DHT22;271;51.114;13.780;2023-11-19T11:44:17;10.90;1.00
573;DHT22;271;51.114;13.780;2023-11-19T11:47:06;11.00;4.80
573;DHT22;271;51.114;13.780;2023-11-19T11:49:54;11.00;7.70
573;DHT22;271;51.114;13.780;2023-11-19T11:53:13;11.20;8.10
573;DHT22;271;51.114;13.780;2023-11-19T11:56:01;11.20;5.40
573;DHT22;271;51.114;13.780;2023-11-19T12:02:17;11.50;1.00
573;DHT22;271;51.114;13.780;2023-11-19T12:05:06;11.60;1.00
573;DHT22;271;51.114;13.780;2023-11-19T12:08:00;11.60;1.00
573;DHT22;271;51.114;13.780;2023-11-19T12:11:09;11.60;1.00
573;DHT22;271;51.114;13.780;2023-11-19T12:14:02;11.70;1.00
573;DHT22;271;51.114;13.780;2023-11-19T12:16:51;11.60;1.00
573;DHT22;271;51.114;13.780;2023-11-19T12:19:43;11.50;1.00
573;DHT22;271;51.114;13.780;2023-11-19T12:22:44;11.50;1.00
573;DHT22;271;51.114;13.780;2023-11-19T12:26:57;11.50;1.00
573;DHT22;271;51.114;13.780;2023-11-19T12:29:45;11.50;1.00
573;DHT22;271;51.114;13.780;2023-11-19T12:32:40;11.60;1.00
573;DHT22;271;51.114;13.780;2023-11-19T12:35:30;11.70;1.00
573;DHT22;271;51.114;13.780;2023-11-19T12:38:22;11.70;1.00
573;DHT22;271;51.114;13.780;2023-11-19T12:45:36;12.00;1.00
573;DHT22;271;51.114;13.780;2023-11-19T12:49:07;12.10;1.00
573;DHT22;271;51.114;13.780;2023-11-19T12:52:20;12.10;1.00
573;DHT22;271;51.114;13.780;2023-11-19T12:55:25;11.80;1.00
573;DHT22;271;51.114;13.780;2023-11-19T12:58:28;11.40;1.00
573;DHT22;271;51.114;13.780;2023-11-19T13:01:17;11.40;1.00
573;DHT22;271;51.114;13.780;2023-11-19T13:04:16;11.40;1.00
573;DHT22;271;51.114;13.780;2023-11-19T13:07:04;11.30;1.00
573;DHT22;271;51.114;13.780;2023-11-19T13:10:01;11.30;1.00
573;DHT22;271;51.114;13.780;2023-11-19T13:13:00;11.30;1.00
573;DHT22;271;51.114;13.780;2023-11-19T13:15:48;11.10;1.00
573;DHT22;271;51.114;13.780;2023-11-19T13:18:36;11.00;1.00
573;DHT22;271;51.114;13.780;2023-11-19T13:21:24;11.00;1.00
573;DHT22;271;51.114;13.780;2023-11-19T13:24:13;11.00;1.00
573;DHT22;271;51.114;13.780;2023-11-19T13:27:04;11.10;1.00
573;DHT22;271;51.114;13.780;2023-11-19T13:29:52;11.20;1.00
573;DHT22;271;51.114;13.780;2023-11-19T13:32:39;11.20;1.00
573;DHT22;271;51.114;13.780;2023-11-19T13:35:27;11.20;1.00
573;DHT22;271;51.114;13.780;2023-11-19T13:38:16;11.20;1.00
573;DHT22;271;51.114;13.780;2023-11-19T13:41:04;11.10;1.00
573;DHT22;271;51.114;13.780;2023-11-19T13:43:53;11.10;1.00
573;DHT22;271;51.114;13.780;2023-11-19T13:46:44;11.00;1.00
573;DHT22;271;51.114;13.780;2023-11-19T13:49:33;11.00;1.00
573;DHT22;271;51.114;13.780;2023-11-19T13:52:21;11.00;1.00
573;DHT22;271;51.114;13.780;2023-11-19T13:55:10;11.00;1.00
573;DHT22;271;51.114;13.780;2023-11-19T13:57:57;11.00;1.00
573;DHT22;271;51.114;13.780;2023-11-19T14:00:47;11.00;1.00
573;DHT22;271;51.114;13.780;2023-11-19T14:03:35;11.10;1.00
573;DHT22;271;51.114;13.780;2023-11-19T14:06:23;11.20;1.00
573;DHT22;271;51.114;13.780;2023-11-19T14:09:10;11.20;1.00
573;DHT22;271;51.114;13.780;2023-11-19T14:11:59;11.20;1.00
573;DHT22;271;51.114;13.780;2023-11-19T14:14:47;11.30;1.00
573;DHT22;271;51.114;13.780;2023-11-19T14:17:36;11.30;1.00
573;DHT22;271;51.114;13.780;2023-11-19T14:20:24;11.30;1.00
573;DHT22;271;51.114;13.780;2023-11-19T14:23:13;11.30;1.00
573;DHT22;271;51.114;13.780;2023-11-19T14:26:00;11.40;1.00
573;DHT22;271;51.114;13.780;2023-11-19T14:28:49;11.40;1.00
573;DHT22;271;51.114;13.780;2023-11-19T14:31:36;11.40;1.00
573;DHT22;271;51.114;13.780;2023-11-19T14:34:25;11.50;1.00
573;DHT22;271;51.114;13.780;2023-11-19T14:37:13;11.50;1.00
573;DHT22;271;51.114;13.780;2023-11-19T14:40:02;11.40;1.00
573;DHT22;271;51.114;13.780;2023-11-19T14:42:52;11.30;1.00
573;DHT22;271;51.114;13.780;2023-11-19T14:45:40;11.30;1.00
573;DHT22;271;51.114;13.780;2023-11-19T14:48:27;11.30;1.00
573;DHT22;271;51.114;13.780;2023-11-19T14:51:16;11.20;1.00
573;DHT22;271;51.114;13.780;2023-11-19T14:54:04;11.20;1.00
573;DHT22;271;51.114;13.780;2023-11-19T14:56:52;11.20;1.00
573;DHT22;271;51.114;13.780;2023-11-19T14:59:40;11.20;1.00
573;DHT22;271;51.114;13.780;2023-11-19T15:02:27;11.20;1.00
573;DHT22;271;51.114;13.780;2023-11-19T15:05:15;11.20;1.00
573;DHT22;271;51.114;13.780;2023-11-19T15:08:04;11.20;1.00
573;DHT22;271;51.114;13.780;2023-11-19T15:10:52;11.20;1.00
573;DHT22;271;51.114;13.780;2023-11-19T15:13:40;11.10;1.00
573;DHT22;271;51.114;13.780;2023-11-19T15:16:28;11.00;1.00
573;DHT22;271;51.114;13.780;2023-11-19T15:19:19;11.00;1.00
573;DHT22;271;51.114;13.780;2023-11-19T15:22:07;10.90;1.00
573;DHT22;271;51.114;13.780;2023-11-19T15:24:59;10.80;1.00
573;DHT22;271;51.114;13.780;2023-11-19T15:27:46;10.70;1.00
573;DHT22;271;51.114;13.780;2023-11-19T15:30:34;10.60;1.00
573;DHT22;271;51.114;13.780;2023-11-19T15:33:22;10.60;1.00
573;DHT22;271;51.114;13.780;2023-11-19T15:36:10;10.60;1.00
573;DHT22;271;51.114;13.780;2023-11-19T15:38:58;10.50;1.00
573;DHT22;271;51.114;13.780;2023-11-19T15:41:48;10.50;1.00
573;DHT22;271;51.114;13.780;2023-11-19T15:44:36;10.50;1.00
573;DHT22;271;51.114;13.780;2023-11-19T15:47:23;10.50;1.00
573;DHT22;271;51.114;13.780;2023-11-19T15:50:11;10.40;1.00
573;DHT22;271;51.114;13.780;2023-11-19T15:52:59;10.40;1.00
573;DHT22;271;51.114;13.780;2023-11-19T15:55:48;10.40;1.00
573;DHT22;271;51.114;13.780;2023-11-19T15:58:37;10.40;1.00
573;DHT22;271;51.114;13.780;2023-11-19T16:01:25;10.30;1.00
573;DHT22;271;51.114;13.780;2023-11-19T16:04:15;10.30;1.00
573;DHT22;271;51.114;13.780;2023-11-19T16:07:02;10.30;1.00
573;DHT22;271;51.114;13.780;2023-11-19T16:09:51;10.30;1.00
573;DHT22;271;51.114;13.780;2023-11-19T16:12:39;10.30;1.00
573;DHT22;271;51.114;13.780;2023-11-19T16:15:28;10.30;1.00
573;DHT22;271;51.114;13.780;2023-11-19T16:18:16;10.30;1.00
573;DHT22;271;51.114;13.780;2023-11-19T16:21:04;10.20;1.00
573;DHT22;271;51.114;13.780;2023-11-19T16:23:52;10.20;1.00
573;DHT22;271;51.114;13.780;2023-11-19T16:26:40;10.20;1.00
573;DHT22;271;51.114;13.780;2023-11-19T16:29:28;10.20;1.00
573;DHT22;271;51.114;13.780;2023-11-19T16:32:17;10.10;1.00
573;DHT22;271;51.114;13.780;2023-11-19T16:35:06;10.10;1.00
573;DHT22;271;51.114;13.780;2023-11-19T16:37:56;10.10;1.00
573;DHT22;271;51.114;13.780;2023-11-19T16:40:44;10.00;1.00
573;DHT22;271;51.114;13.780;2023-11-19T16:43:32;10.00;1.00
573;DHT22;271;51.114;13.780;2023-11-19T16:46:19;9.90;1.00
573;DHT22;271;51.114;13.780;2023-11-19T16:49:09;9.90;1.00
573;DHT22;271;51.114;13.780;2023-11-19T16:51:56;10.00;1.00
573;DHT22;271;51.114;13.780;2023-11-19T16:54:44;10.00;1.00
573;DHT22;271;51.114;13.780;2023-11-19T16:57:32;10.00;1.00
573;DHT22;271;51.114;13.780;2023-11-19T17:00:20;10.10;1.00
573;DHT22;271;51.114;13.780;2023-11-19T17:03:08;10.10;1.00
573;DHT22;271;51.114;13.780;2023-11-19T17:05:57;10.10;1.00
573;DHT22;271;51.114;13.780;2023-11-19T17:08:44;10.10;1.00
573;DHT22;271;51.114;13.780;2023-11-19T17:11:32;10.20;1.00
573;DHT22;271;51.114;13.780;2023-11-19T17:14:22;10.20;1.00
573;DHT22;271;51.114;13.780;2023-11-19T17:17:09;10.10;1.00
573;DHT22;271;51.114;13.780;2023-11-19T17:19:57;10.00;1.00
573;DHT22;271;51.114;13.780;2023-11-19T17:22:53;10.00;1.00
573;DHT22;271;51.114;13.780;2023-11-19T17:25:42;10.00;1.00
573;DHT22;271;51.114;13.780;2023-11-19T17:28:31;10.00;1.00
573;DHT22;271;51.114;13.780;2023-11-19T17:31:23;10.00;1.00
573;DHT22;271;51.114;13.780;2023-11-19T17:34:11;10.00;1.00
573;DHT22;271;51.114;13.780;2023-11-19T17:36:59;10.00;1.00
573;DHT22;271;51.114;13.780;2023-11-19T17:39:49;10.10;1.00
573;DHT22;271;51.114;13.780;2023-11-19T17:42:38;10.10;1.00
573;DHT22;271;51.114;13.780;2023-11-19T17:45:26;10.00;1.00
573;DHT22;271;51.114;13.780;2023-11-19T17:48:14;10.00;1.00
573;DHT22;271;51.114;13.780;2023-11-19T17:51:02;10.00;1.00
573;DHT22;271;51.114;13.780;2023-11-19T17:53:53;9.90;1.00
573;DHT22;271;51.114;13.780;2023-11-19T17:56:42;10.00;1.00
573;DHT22;271;51.114;13.780;2023-11-19T17:59:30;10.00;1.00
573;DHT22;271;51.114;13.780;2023-11-19T18:02:18;9.90;1.00
573;DHT22;271;51.114;13.780;2023-11-19T18:05:06;9.90;1.00
573;DHT22;271;51.114;13.780;2023-11-19T18:07:55;9.90;1.00
573;DHT22;271;51.114;13.780;2023-11-19T18:10:45;9.90;1.00
573;DHT22;271;51.114;13.780;2023-11-19T18:13:34;9.90;1.00
573;DHT22;271;51.114;13.780;2023-11-19T18:16:22;10.00;1.00
573;DHT22;271;51.114;13.780;2023-11-19T18:19:10;9.90;1.00
573;DHT22;271;51.114;13.780;2023-11-19T18:21:58;10.00;1.00
573;DHT22;271;51.114;13.780;2023-11-19T18:24:46;10.00;1.00
573;DHT22;271;51.114;13.780;2023-11-19T18:27:34;10.00;1.00
573;DHT22;271;51.114;13.780;2023-11-19T18:30:23;10.10;1.00
573;DHT22;271;51.114;13.780;2023-11-19T18:33:11;10.00;1.00
573;DHT22;271;51.114;13.780;2023-11-19T18:36:01;10.00;1.00
573;DHT22;271;51.114;13.780;2023-11-19T18:38:50;10.10;1.00
573;DHT22;271;51.114;13.780;2023-11-19T18:41:37;10.10;1.00
573;DHT22;271;51.114;13.780;2023-11-19T18:44:25;10.10;1.00
573;DHT22;271;51.114;13.780;2023-11-19T18:47:15;10.10;1.00
573;DHT22;271;51.114;13.780;2023-11-19T18:50:03;10.20;1.00
573;DHT22;271;51.114;13.780;2023-11-19T18:52:51;10.20;1.00
573;DHT22;271;51.114;13.780;2023-11-19T18:55:39;10.10;1.00
573;DHT22;271;51.114;13.780;2023-11-19T18:58:27;10.10;1.00
573;DHT22;271;51.114;13.780;2023-11-19T19:01:14;10.10;1.00
573;DHT22;271;51.114;13.780;2023-11-19T19:04:05;10.00;1.00
573;DHT22;271;51.114;13.780;2023-11-19T19:06:54;10.00;1.00
573;DHT22;271;51.114;13.780;2023-11-19T19:09:41;9.90;1.00
573;DHT22;271;51.114;13.780;2023-11-19T19:12:31;9.90;1.00
573;DHT22;271;51.114;13.780;2023-11-19T19:15:21;9.80;1.00
573;DHT22;271;51.114;13.780;2023-11-19T19:18:08;9.90;1.00
573;DHT22;271;51.114;13.780;2023-11-19T19:20:58;9.80;1.00